createdAt,value
2018-05-21T00:01:47.007Z,62.86
2018-05-21T00:04:15.257Z,64.47
2018-05-21T00:06:44.311Z,63.49
2018-05-21T00:09:12.576Z,63.97
2018-05-21T00:11:40.828Z,63.79
2018-05-21T00:14:09.100Z,64.27
2018-05-21T00:16:37.368Z,64.68
2018-05-21T00:19:05.627Z,64.43
2018-05-21T00:21:34.645Z,63.74
2018-05-21T00:24:02.909Z,63.92
2018-05-21T00:26:32.014Z,64.90
2018-05-21T00:29:00.292Z,63.29
2018-05-21T00:31:28.542Z,64.56
2018-05-21T00:33:57.556Z,64.62
2018-05-21T00:36:25.828Z,64.69
2018-05-21T00:38:54.936Z,65.16
2018-05-21T00:41:23.220Z,65.36
2018-05-21T00:43:51.500Z,65.58
2018-05-21T00:46:19.736Z,66.19
2018-05-21T00:48:47.993Z,66.09
2018-05-21T00:51:16.328Z,66.21
2018-05-21T00:53:44.601Z,65.92
2018-05-21T00:56:12.877Z,66.00
2018-05-21T00:58:41.139Z,66.83
2018-05-21T01:01:09.398Z,66.93
2018-05-21T01:03:38.516Z,66.32
2018-05-21T01:06:06.806Z,67.70
2018-05-21T01:08:35.069Z,67.22
2018-05-21T01:11:03.344Z,66.60
2018-05-21T01:13:31.621Z,66.64
2018-05-21T01:15:59.889Z,67.08
2018-05-21T01:18:28.176Z,66.49
2018-05-21T01:20:56.428Z,66.81
2018-05-21T01:23:25.546Z,66.90
2018-05-21T01:25:53.840Z,65.46
2018-05-21T01:28:22.106Z,66.75
2018-05-21T01:30:50.369Z,65.81
2018-05-21T01:33:18.657Z,66.28
2018-05-21T01:35:46.907Z,66.04
2018-05-21T01:38:15.935Z,65.60
2018-05-21T01:40:44.184Z,66.46
2018-05-21T01:43:13.309Z,66.21
2018-05-21T01:45:41.577Z,66.49
2018-05-21T01:48:09.829Z,67.06
2018-05-21T01:50:38.849Z,66.33
2018-05-21T01:53:07.133Z,66.09
2018-05-21T01:55:35.401Z,66.76
2018-05-21T01:58:03.669Z,67.47
2018-05-21T02:00:32.570Z,66.79
2018-05-21T02:03:00.837Z,66.67
2018-05-21T02:05:29.092Z,66.42
2018-05-21T02:07:58.123Z,66.70
2018-05-21T02:10:26.378Z,67.32
2018-05-21T02:12:54.645Z,66.53
2018-05-21T02:15:23.664Z,66.96
2018-05-21T02:17:51.925Z,67.18
2018-05-21T02:20:20.187Z,67.35
2018-05-21T02:22:49.302Z,67.98
2018-05-21T02:25:17.561Z,68.76
2018-05-21T02:27:46.602Z,68.69
2018-05-21T02:30:14.855Z,68.51
2018-05-21T02:32:43.106Z,68.76
2018-05-21T02:35:11.385Z,69.07
2018-05-21T02:37:39.645Z,68.71
2018-05-21T02:40:08.768Z,68.79
2018-05-21T02:42:37.034Z,69.15
2018-05-21T02:45:06.041Z,69.57
2018-05-21T02:47:34.421Z,69.81
2018-05-21T02:50:02.699Z,69.76
2018-05-21T02:52:30.956Z,70.09
2018-05-21T02:54:59.981Z,69.75
2018-05-21T02:57:28.341Z,69.46
2018-05-21T02:59:56.600Z,69.58
2018-05-21T03:02:25.674Z,69.37
2018-05-21T03:04:53.950Z,69.57
2018-05-21T03:07:22.229Z,69.97
2018-05-21T03:09:50.536Z,70.04
2018-05-21T03:12:18.793Z,69.96
2018-05-21T03:14:47.814Z,70.09
2018-05-21T03:17:16.089Z,69.73
2018-05-21T03:19:44.366Z,70.06
2018-05-21T03:22:12.669Z,70.34
2018-05-21T03:24:40.930Z,70.51
2018-05-21T03:27:09.181Z,70.32
2018-05-21T03:29:38.236Z,70.75
2018-05-21T03:32:06.498Z,70.13
2018-05-21T03:34:34.764Z,70.68
2018-05-21T03:37:03.013Z,70.42
2018-05-21T03:39:31.296Z,71.09
2018-05-21T03:41:59.561Z,71.86
2018-05-21T03:44:28.581Z,72.71
2018-05-21T03:46:56.836Z,72.30
2018-05-21T03:49:25.114Z,73.27
2018-05-21T03:51:53.365Z,74.39
2018-05-21T03:54:22.397Z,73.94
2018-05-21T03:56:50.659Z,73.80
2018-05-21T03:59:36.685Z,74.09
2018-05-21T04:02:22.680Z,74.57
2018-05-21T04:04:51.020Z,74.74
2018-05-21T04:07:19.309Z,75.54
2018-05-21T04:12:15.183Z,74.99
2018-05-21T04:14:43.436Z,75.72
2018-05-21T04:17:11.694Z,76.06
2018-05-21T04:19:40.060Z,75.73
2018-05-21T04:22:08.329Z,76.34
2018-05-21T04:24:37.432Z,76.10
2018-05-21T04:27:05.704Z,76.10
2018-05-21T04:29:33.957Z,75.67
2018-05-21T04:32:02.281Z,75.93
2018-05-21T04:34:30.556Z,75.47
2018-05-21T04:36:58.809Z,75.16
2018-05-21T04:39:27.836Z,75.78
2018-05-21T04:41:56.086Z,75.20
2018-05-21T04:44:24.376Z,75.33
2018-05-21T04:46:52.638Z,75.19
2018-05-21T04:49:20.930Z,75.24
2018-05-21T04:51:49.208Z,75.60
2018-05-21T04:54:17.528Z,74.53
2018-05-21T04:56:45.768Z,75.65
2018-05-21T04:59:14.023Z,74.63
2018-05-21T05:01:42.297Z,74.18
2018-05-21T05:04:10.552Z,74.41
2018-05-21T05:06:39.667Z,73.97
2018-05-21T05:09:07.954Z,74.08
2018-05-21T05:11:36.210Z,73.74
2018-05-21T05:14:05.240Z,73.62
2018-05-21T05:16:33.497Z,73.97
2018-05-21T05:19:01.745Z,72.80
2018-05-21T05:21:30.777Z,72.96
2018-05-21T05:23:59.040Z,73.08
2018-05-21T05:26:27.316Z,72.41
2018-05-21T05:28:55.602Z,71.82
2018-05-21T05:31:23.849Z,72.46
2018-05-21T05:33:52.876Z,71.39
2018-05-21T05:36:21.145Z,71.94
2018-05-21T05:38:49.402Z,71.55
2018-05-21T05:41:18.502Z,71.63
2018-05-21T05:43:46.795Z,71.36
2018-05-21T05:46:15.044Z,71.09
2018-05-21T05:48:44.105Z,70.89
2018-05-21T05:51:12.333Z,70.65
2018-05-21T05:53:40.607Z,70.92
2018-05-21T05:56:08.869Z,70.39
2018-05-21T05:58:37.979Z,70.69
2018-05-21T06:01:06.235Z,70.96
2018-05-21T06:03:35.262Z,70.47
2018-05-21T06:06:03.528Z,70.96
2018-05-21T06:08:31.800Z,70.68
2018-05-21T06:11:00.092Z,70.75
2018-05-21T06:13:28.352Z,70.37
2018-05-21T06:15:56.614Z,71.29
2018-05-21T06:18:25.730Z,70.64
2018-05-21T06:20:53.989Z,70.50
2018-05-21T06:23:23.079Z,70.21
2018-05-21T06:25:51.490Z,70.15
2018-05-21T06:28:19.751Z,70.24
2018-05-21T06:30:48.079Z,70.29
2018-05-21T06:33:16.379Z,70.06
2018-05-21T06:35:45.453Z,69.26
2018-05-21T06:38:13.772Z,68.92
2018-05-21T06:40:42.980Z,68.94
2018-05-21T06:43:11.256Z,68.28
2018-05-21T06:45:39.506Z,67.25
2018-05-21T06:48:08.530Z,67.33
2018-05-21T06:50:36.875Z,67.83
2018-05-21T06:53:05.077Z,67.54
2018-05-21T06:55:33.341Z,67.65
2018-05-21T06:58:02.383Z,67.04
2018-05-21T07:00:30.968Z,66.92
2018-05-21T07:02:59.228Z,67.60
2018-05-21T07:05:27.493Z,66.86
2018-05-21T07:07:55.831Z,65.49
2018-05-21T07:10:24.143Z,66.27
2018-05-21T07:12:52.405Z,66.66
2018-05-21T07:15:20.654Z,65.93
2018-05-21T07:17:48.968Z,65.25
2018-05-21T07:20:17.241Z,64.42
2018-05-21T07:22:45.493Z,63.42
2018-05-21T07:25:14.621Z,63.20
2018-05-21T07:27:43.066Z,64.04
2018-05-21T07:30:11.354Z,63.35
2018-05-21T07:32:40.376Z,63.26
2018-05-21T07:35:08.651Z,63.89
2018-05-21T07:37:36.914Z,63.35
2018-05-21T07:40:05.159Z,63.67
2018-05-21T07:42:33.477Z,63.13
2018-05-21T07:45:01.757Z,62.14
2018-05-21T07:47:30.133Z,62.54
2018-05-21T07:49:58.400Z,62.34
2018-05-21T07:52:26.685Z,62.24
2018-05-21T07:54:54.939Z,61.02
2018-05-21T07:57:23.981Z,60.99
2018-05-21T07:59:52.323Z,60.85
2018-05-21T08:02:20.615Z,60.29
2018-05-21T08:04:48.891Z,59.68
2018-05-21T08:07:17.144Z,60.75
2018-05-21T08:09:46.169Z,58.90
2018-05-21T08:12:14.533Z,58.90
2018-05-21T08:14:42.905Z,59.38
2018-05-21T08:17:11.835Z,58.81
2018-05-21T08:19:40.101Z,57.73
2018-05-21T08:22:08.462Z,57.91
2018-05-21T08:24:37.440Z,58.19
2018-05-21T08:27:05.729Z,58.11
2018-05-21T08:29:34.001Z,57.89
2018-05-21T08:32:02.264Z,58.07
2018-05-21T08:34:33.008Z,57.58
2018-05-21T08:37:01.308Z,57.49
2018-05-21T08:39:29.548Z,56.68
2018-05-21T08:41:58.583Z,57.49
2018-05-21T08:44:26.835Z,56.51
2018-05-21T08:46:55.080Z,56.75
2018-05-21T08:49:24.201Z,57.20
2018-05-21T08:51:52.476Z,55.96
2018-05-21T08:54:20.761Z,55.05
2018-05-21T08:56:49.241Z,54.98
2018-05-21T08:59:17.493Z,55.43
2018-05-21T09:01:46.513Z,55.14
2018-05-21T09:04:14.781Z,54.21
2018-05-21T09:06:43.065Z,54.23
2018-05-21T09:09:11.325Z,54.11
2018-05-21T09:11:39.596Z,54.25
2018-05-21T09:14:08.619Z,54.24
2018-05-21T09:16:36.872Z,53.50
2018-05-21T09:19:05.989Z,53.74
2018-05-21T09:21:34.250Z,50.08
2018-05-21T09:24:02.544Z,51.55
2018-05-21T09:26:30.881Z,51.49
2018-05-21T09:28:59.912Z,49.58
2018-05-21T09:31:28.193Z,49.01
2018-05-21T09:33:56.441Z,51.12
2018-05-21T09:36:24.718Z,51.35
2018-05-21T09:38:53.822Z,50.56
2018-05-21T09:41:22.089Z,50.42
2018-05-21T09:43:51.131Z,50.05
2018-05-21T09:46:19.412Z,48.42
2018-05-21T09:48:47.813Z,50.60
2018-05-21T09:51:15.939Z,50.05
2018-05-21T09:53:44.181Z,50.60
2018-05-21T09:56:13.296Z,48.93
2018-05-21T09:58:41.554Z,49.38
2018-05-21T10:01:10.581Z,48.87
2018-05-21T10:03:38.844Z,48.73
2018-05-21T10:06:07.243Z,48.18
2018-05-21T10:08:35.485Z,49.04
2018-05-21T10:11:04.516Z,48.36
2018-05-21T10:13:32.769Z,50.28
2018-05-21T10:16:01.053Z,48.75
2018-05-21T10:18:29.432Z,49.77
2018-05-21T10:20:57.676Z,49.30
2018-05-21T10:23:26.695Z,48.92
2018-05-21T10:25:55.143Z,48.04
2018-05-21T10:28:23.317Z,47.43
2018-05-21T10:30:52.345Z,46.80
2018-05-21T10:33:20.644Z,46.46
2018-05-21T10:35:48.901Z,46.98
2018-05-21T10:38:17.157Z,46.54
2018-05-21T10:40:45.444Z,46.80
2018-05-21T10:43:13.732Z,46.03
2018-05-21T10:45:41.996Z,46.16
2018-05-21T10:48:10.272Z,46.74
2018-05-21T10:50:38.521Z,47.21
2018-05-21T10:53:07.640Z,45.21
2018-05-21T10:55:35.940Z,45.61
2018-05-21T10:58:04.300Z,46.00
2018-05-21T11:00:32.543Z,45.73
2018-05-21T11:03:01.583Z,46.56
2018-05-21T11:05:29.829Z,44.94
2018-05-21T11:07:58.858Z,44.47
2018-05-21T11:10:27.217Z,45.87
2018-05-21T11:12:55.464Z,44.46
2018-05-21T11:15:24.484Z,45.46
2018-05-21T11:17:52.846Z,45.07
2018-05-21T11:20:21.045Z,44.58
2018-05-21T11:22:49.320Z,44.59
2018-05-21T11:25:17.597Z,44.41
2018-05-21T11:27:45.865Z,44.01
2018-05-21T11:30:14.114Z,44.33
2018-05-21T11:32:42.378Z,45.34
2018-05-21T11:35:10.630Z,43.35
2018-05-21T11:37:38.975Z,43.77
2018-05-21T11:40:07.264Z,44.12
2018-05-21T11:42:35.508Z,44.60
2018-05-21T11:45:04.520Z,45.28
2018-05-21T11:47:32.810Z,43.63
2018-05-21T11:50:01.177Z,43.25
2018-05-21T11:52:29.328Z,43.23
2018-05-21T11:54:58.388Z,41.94
2018-05-21T11:57:26.721Z,42.36
2018-05-21T11:59:55.165Z,43.38
2018-05-21T12:02:23.427Z,42.29
2018-05-21T12:04:51.675Z,42.60
2018-05-21T12:07:20.032Z,42.77
2018-05-21T12:09:48.313Z,43.73
2018-05-21T12:12:16.572Z,42.18
2018-05-21T12:14:44.833Z,42.83
2018-05-21T12:17:13.898Z,41.82
2018-05-21T12:19:42.225Z,42.55
2018-05-21T12:22:10.524Z,42.91
2018-05-21T12:24:38.889Z,41.56
2018-05-21T12:27:07.138Z,42.38
2018-05-21T12:29:36.150Z,41.56
2018-05-21T12:32:04.438Z,42.41
2018-05-21T12:34:32.725Z,40.21
2018-05-21T12:37:00.997Z,39.79
2018-05-21T12:39:29.244Z,39.93
2018-05-21T12:41:58.374Z,41.60
2018-05-21T12:44:26.714Z,41.66
2018-05-21T12:46:54.970Z,40.24
2018-05-21T12:49:23.921Z,40.49
2018-05-21T12:51:52.189Z,41.22
2018-05-21T12:54:20.445Z,39.22
2018-05-21T12:56:49.469Z,41.32
2018-05-21T12:59:17.733Z,42.16
2018-05-21T13:01:46.011Z,41.16
2018-05-21T13:04:14.281Z,40.73
2018-05-21T13:06:42.562Z,41.58
2018-05-21T13:09:10.804Z,40.29
2018-05-21T13:11:39.830Z,42.71
2018-05-21T13:14:08.215Z,39.80
2018-05-21T13:16:36.477Z,40.07
2018-05-21T13:19:04.726Z,38.36
2018-05-21T13:21:33.762Z,38.96
2018-05-21T13:24:02.033Z,40.10
2018-05-21T13:26:30.278Z,38.85
2018-05-21T13:28:59.407Z,39.81
2018-05-21T13:31:27.658Z,38.69
2018-05-21T13:33:56.673Z,37.76
2018-05-21T13:36:24.945Z,38.53
2018-05-21T13:38:53.215Z,39.50
2018-05-21T13:41:21.464Z,38.42
2018-05-21T13:43:50.504Z,39.00
2018-05-21T13:46:18.769Z,35.97
2018-05-21T13:48:47.037Z,35.45
2018-05-21T13:51:15.363Z,34.56
2018-05-21T13:53:43.612Z,33.90
2018-05-21T13:56:11.896Z,32.89
2018-05-21T13:58:40.180Z,32.45
2018-05-21T14:01:09.366Z,31.69
2018-05-21T14:03:37.641Z,33.03
2018-05-21T14:06:05.997Z,33.44
2018-05-21T14:08:34.261Z,32.24
2018-05-21T14:11:03.280Z,31.41
2018-05-21T14:13:31.557Z,30.22
2018-05-21T14:15:59.808Z,30.40
2018-05-21T14:18:28.832Z,30.36
2018-05-21T14:20:57.100Z,30.75
2018-05-21T14:23:25.352Z,32.47
2018-05-21T14:25:55.615Z,30.86
2018-05-21T14:28:23.992Z,30.26
2018-05-21T14:30:52.241Z,29.64
2018-05-21T14:33:20.484Z,30.42
2018-05-21T14:35:48.792Z,29.60
2018-05-21T14:38:18.912Z,28.44
2018-05-21T14:40:47.252Z,29.72
2018-05-21T14:43:15.604Z,28.75
2018-05-21T14:45:43.946Z,30.87
2018-05-21T14:48:12.307Z,30.68
2018-05-21T14:50:41.407Z,31.48
2018-05-21T14:53:09.748Z,30.03
2018-05-21T14:55:38.069Z,29.58
2018-05-21T14:58:06.395Z,29.25
2018-05-21T15:00:34.852Z,29.80
2018-05-21T15:03:03.942Z,29.48
2018-05-21T15:05:32.309Z,29.24
2018-05-21T15:08:01.347Z,29.04
2018-05-21T15:10:29.669Z,28.46
2018-05-21T15:12:58.765Z,28.10
2018-05-21T15:15:27.080Z,28.00
2018-05-21T15:17:55.386Z,28.65
2018-05-21T15:20:24.484Z,27.63
2018-05-21T15:22:52.818Z,27.50
2018-05-21T15:25:21.134Z,28.34
2018-05-21T15:27:49.468Z,28.97
2018-05-21T15:30:17.788Z,27.76
2018-05-21T15:32:46.085Z,27.21
2018-05-21T15:35:15.181Z,26.82
2018-05-21T15:37:43.523Z,26.14
2018-05-21T15:40:12.613Z,26.28
2018-05-21T15:42:40.953Z,26.80
2018-05-21T15:45:09.290Z,27.67
2018-05-21T15:47:37.598Z,27.55
2018-05-21T15:50:05.914Z,27.32
2018-05-21T15:52:34.278Z,26.45
2018-05-21T15:55:02.612Z,26.76
2018-05-21T15:57:31.733Z,27.25
2018-05-21T16:00:00.065Z,27.17
2018-05-21T16:02:28.424Z,27.25
2018-05-21T16:04:56.785Z,26.70
2018-05-21T16:07:25.105Z,26.81
2018-05-21T16:09:53.442Z,26.51
2018-05-21T16:12:21.768Z,26.68
2018-05-21T16:14:50.145Z,27.97
2018-05-21T16:17:18.488Z,29.74
2018-05-21T16:19:46.852Z,29.46
2018-05-21T16:22:15.187Z,30.70
2018-05-21T16:24:44.286Z,30.67
2018-05-21T16:27:12.718Z,30.25
2018-05-21T16:29:41.017Z,29.15
2018-05-21T16:32:09.365Z,28.88
2018-05-21T16:34:37.628Z,29.35
2018-05-21T16:37:05.949Z,29.46
2018-05-21T16:39:34.260Z,30.76
2018-05-21T16:42:03.373Z,29.95
2018-05-21T16:44:31.656Z,29.54
2018-05-21T16:46:59.936Z,29.24
2018-05-21T16:49:28.291Z,29.62
2018-05-21T16:51:56.489Z,29.55
2018-05-21T16:54:24.769Z,29.90
2018-05-21T16:56:53.065Z,30.30
2018-05-21T16:59:21.408Z,30.56
2018-05-21T17:01:49.784Z,31.66
2018-05-21T17:04:18.080Z,30.80
2018-05-21T17:06:46.502Z,31.49
2018-05-21T17:09:15.003Z,30.33
2018-05-21T17:11:43.253Z,30.10
2018-05-21T17:14:11.589Z,29.72
2018-05-21T17:16:39.932Z,29.43
2018-05-21T17:19:08.458Z,29.33
2018-05-21T17:21:36.751Z,29.21
2018-05-21T17:24:05.014Z,28.61
2018-05-21T17:26:33.305Z,28.25
2018-05-21T17:29:01.663Z,27.90
2018-05-21T17:31:29.987Z,27.80
2018-05-21T17:33:58.396Z,27.92
2018-05-21T17:36:26.750Z,28.39
2018-05-21T17:38:55.899Z,28.62
2018-05-21T17:41:24.691Z,28.98
2018-05-21T17:43:53.489Z,29.44
2018-05-21T17:46:22.158Z,29.93
2018-05-21T17:48:50.709Z,30.49
2018-05-21T17:51:20.114Z,31.01
2018-05-21T17:53:49.372Z,31.49
2018-05-21T17:56:19.231Z,32.21
2018-05-21T17:58:49.162Z,33.42
2018-05-21T18:01:19.947Z,35.07
2018-05-21T18:03:49.931Z,37.01
2018-05-21T18:06:19.821Z,37.85
2018-05-21T18:08:49.576Z,38.70
2018-05-21T18:11:19.253Z,39.28
2018-05-21T18:13:49.305Z,39.70
2018-05-21T18:16:19.386Z,40.82
2018-05-21T18:18:49.367Z,41.74
2018-05-21T18:21:20.303Z,42.02
2018-05-21T18:23:50.492Z,44.04
2018-05-21T18:26:20.438Z,43.17
2018-05-21T18:28:51.523Z,44.26
2018-05-21T18:31:22.376Z,44.76
2018-05-21T18:33:52.553Z,45.33
2018-05-21T18:36:22.484Z,46.54
2018-05-21T18:38:53.281Z,46.33
2018-05-21T18:41:23.209Z,46.54
2018-05-21T18:43:54.604Z,47.12
2018-05-21T18:46:24.591Z,46.69
2018-05-21T18:48:55.338Z,47.28
2018-05-21T18:51:26.167Z,47.60
2018-05-21T18:53:56.103Z,47.73
2018-05-21T18:56:25.936Z,48.60
2018-05-21T18:58:56.072Z,48.75
2018-05-21T19:01:26.327Z,49.08
2018-05-21T19:03:56.269Z,50.05
2018-05-21T19:06:27.081Z,50.70
2018-05-21T19:08:57.013Z,50.73
2018-05-21T19:11:26.957Z,50.27
2018-05-21T19:13:57.033Z,50.92
2018-05-21T19:16:27.954Z,51.04
2018-05-21T19:18:57.952Z,51.60
2018-05-21T19:21:28.125Z,51.61
2018-05-21T19:23:59.457Z,51.88
2018-05-21T19:26:30.098Z,52.15
2018-05-21T19:29:00.911Z,52.53
2018-05-21T19:31:30.791Z,52.21
2018-05-21T19:34:00.874Z,52.32
2018-05-21T19:36:31.519Z,53.38
2018-05-21T19:39:02.228Z,53.57
2018-05-21T19:41:32.112Z,53.16
2018-05-21T19:44:01.941Z,53.58
2018-05-21T19:46:31.639Z,54.21
2018-05-21T19:49:01.831Z,53.19
2018-05-21T19:51:32.035Z,53.46
2018-05-21T19:54:01.982Z,54.63
2018-05-21T19:56:31.835Z,54.64
2018-05-21T19:59:02.532Z,54.75
2018-05-21T20:01:32.654Z,54.75
2018-05-21T20:04:02.815Z,55.21
2018-05-21T20:06:33.694Z,54.83
2018-05-21T20:09:03.860Z,54.81
2018-05-21T20:11:34.587Z,55.19
2018-05-21T20:14:04.922Z,55.76
2018-05-21T20:16:35.761Z,55.36
2018-05-21T20:19:06.425Z,55.08
2018-05-21T20:21:36.236Z,55.15
2018-05-21T20:24:06.948Z,55.40
2018-05-21T20:26:38.231Z,55.72
2018-05-21T20:29:08.155Z,55.31
2018-05-21T20:31:37.800Z,55.67
2018-05-21T20:34:08.259Z,55.03
2018-05-21T20:36:39.014Z,55.87
2018-05-21T20:39:08.949Z,55.72
2018-05-21T20:41:38.641Z,55.62
2018-05-21T20:44:08.772Z,55.79
2018-05-21T20:46:38.488Z,55.92
2018-05-21T20:49:08.732Z,55.50
2018-05-21T20:51:39.221Z,55.66
2018-05-21T20:54:08.923Z,55.99
2018-05-21T20:56:38.555Z,55.28
2018-05-21T20:59:08.295Z,56.15
2018-05-21T21:01:38.726Z,55.73
2018-05-21T21:04:09.227Z,55.33
2018-05-21T21:06:38.955Z,55.52
2018-05-21T21:09:09.366Z,55.74
2018-05-21T21:11:39.015Z,55.83
2018-05-21T21:14:09.450Z,55.37
2018-05-21T21:16:39.757Z,55.78
2018-05-21T21:19:10.009Z,56.03
2018-05-21T21:21:39.190Z,56.51
2018-05-21T21:24:07.548Z,56.46
2018-05-21T21:26:35.887Z,56.01
2018-05-21T21:29:05.029Z,56.74
2018-05-21T21:31:33.340Z,56.65
2018-05-21T21:34:01.690Z,56.55
2018-05-21T21:36:30.012Z,57.30
2018-05-21T21:38:58.364Z,57.02
2018-05-21T21:41:26.672Z,56.75
2018-05-21T21:43:55.021Z,57.05
2018-05-21T21:46:23.357Z,57.47
2018-05-21T21:48:52.433Z,57.54
2018-05-21T21:51:20.736Z,57.19
2018-05-21T21:53:49.816Z,57.45
2018-05-21T21:56:18.904Z,57.55
2018-05-21T21:58:47.971Z,57.55
2018-05-21T22:01:17.844Z,57.82
2018-05-21T22:03:46.168Z,58.58
2018-05-21T22:06:15.271Z,59.05
2018-05-21T22:08:43.606Z,59.20
2018-05-21T22:11:11.916Z,58.06
2018-05-21T22:13:40.260Z,58.52
2018-05-21T22:16:08.593Z,59.05
2018-05-21T22:18:38.431Z,59.52
2018-05-21T22:21:07.504Z,59.95
2018-05-21T22:23:36.604Z,60.09
2018-05-21T22:26:05.990Z,60.59
2018-05-21T22:28:35.853Z,60.41
2018-05-21T22:31:04.187Z,61.88
2018-05-21T22:33:33.287Z,60.41
2018-05-21T22:36:02.404Z,61.35
2018-05-21T22:38:30.726Z,61.45
2018-05-21T22:40:59.033Z,62.23
2018-05-21T22:43:28.167Z,61.75
2018-05-21T22:45:56.468Z,62.51
2018-05-21T22:48:24.794Z,62.33
2018-05-21T22:50:53.899Z,61.82
2018-05-21T22:53:22.984Z,62.84
2018-05-21T22:55:52.080Z,62.45
2018-05-21T22:58:21.175Z,62.78
2018-05-21T23:00:50.294Z,62.51
2018-05-21T23:03:19.370Z,63.11
2018-05-21T23:05:48.472Z,62.56
2018-05-21T23:08:17.555Z,63.19
2018-05-21T23:10:46.663Z,63.46
2018-05-21T23:13:15.759Z,63.29
2018-05-21T23:15:44.832Z,63.29
2018-05-21T23:18:13.184Z,63.21
2018-05-21T23:20:41.493Z,63.41
2018-05-21T23:23:09.793Z,63.29
2018-05-21T23:25:38.892Z,63.35
2018-05-21T23:28:07.221Z,63.42
2018-05-21T23:30:35.568Z,63.54
2018-05-21T23:33:03.889Z,63.95
2018-05-21T23:35:32.175Z,64.04
2018-05-21T23:38:01.283Z,63.99
2018-05-21T23:40:30.364Z,63.68
2018-05-21T23:43:00.212Z,64.06
2018-05-21T23:45:28.531Z,64.12
2018-05-21T23:47:56.849Z,64.75
2018-05-21T23:50:25.976Z,64.55
2018-05-21T23:52:54.283Z,64.39
2018-05-21T23:55:22.582Z,64.43
2018-05-21T23:57:51.667Z,64.91
